Time;durP1;ratioP1;P1;durP2;ratioP2;P2;SDS_P1;SDS_P2;PMS_P1;PMS_P2;Temp;Humidity;BMP_temperature;BMP_pressure;BME280_temperature;BME280_humidity;BME280_pressure;Samples;Min_cycle;Max_cycle;Signal;HPM_P1;HPM_P2
2022/03/22 00:00:25;;;;;;;;;;;;;;;;;;1054200;27;2870;-71
2022/03/22 00:01:10;;;;;;;;;;;;;;;;;;1055677;27;3911;-71
2022/03/22 00:01:41;;;;;;;;;;;;;;;;;;1055567;27;2855;-72
2022/03/22 00:02:18;;;;;;;;;;;;;;;;;;1054764;27;3898;-73
2022/03/22 00:02:49;;;;;;;;;;;;;;;;;;1055420;27;3939;-71
2022/03/22 00:03:24;;;;;;;;;;;;;;;;;;1050735;28;2843;-73
2022/03/22 00:03:55;;;;;;;;;;;;;;;;;;1051189;28;3831;-70
2022/03/22 00:04:25;;;;;;;;;;;;;;;;;;1049702;28;2066;-71
2022/03/22 00:04:55;;;;;;;;;;;;;;;;;;1052219;28;5372;-72
2022/03/22 00:05:25;;;;;;;;;;;;;;;;;;1055659;27;2626;-71
2022/03/22 00:05:56;;;;;;;;;;;;;;;;;;1055816;27;3891;-71
2022/03/22 00:06:26;;;;;;;;;;;;;;;;;;1054099;27;2151;-71
2022/03/22 00:06:56;;;;;;;;;;;;;;;;;;1055660;27;4032;-72
2022/03/22 00:07:27;;;;;;;;;;;;;;;;;;1054938;27;2760;-71
2022/03/22 00:08:00;;;;;;;;;;;;;;;;;;1054810;27;3833;-71
2022/03/22 00:08:31;;;;;;;;;;;;;;;;;;1056153;27;2604;-71
2022/03/22 00:09:02;;;;;;;;;;;;;;;;;;1055181;27;4165;-72
2022/03/22 00:09:33;;;;;;;;;;;;;;;;;;1051987;28;2905;-71
2022/03/22 00:10:03;;;;;;;;;;;;;;;;;;1052163;28;3937;-70
2022/03/22 00:10:34;;;;;;;;;;;;;;;;;;1053470;28;2872;-72
2022/03/22 00:11:04;;;;;;;;;;;;;;;;;;1051634;28;4050;-71
2022/03/22 00:11:34;;;;;;;;;;;;;;;;;;1056669;27;2491;-72
2022/03/22 00:12:05;;;;;;;;;;;;;;;;;;1054690;27;3893;-71
2022/03/22 00:12:37;;;;;;;;;;;;;;;;;;1055483;27;2527;-73
2022/03/22 00:13:07;;;;;;;;;;;;;;;;;;1055478;27;4071;-72
2022/03/22 00:13:38;;;;;;;;;;;;;;;;;;1048543;28;2692;-72
2022/03/22 00:14:09;;;;;;;;;;;;;;;;;;1047884;28;4228;-71
2022/03/22 00:14:40;;;;;;;;;;;;;;;;;;1048858;28;2100;-72
2022/03/22 00:15:10;;;;;;;;;;;;;;;;;;1048714;28;3948;-71
2022/03/22 00:15:41;;;;;;;;;;;;;;;;;;1054334;27;2636;-72
2022/03/22 00:16:12;;;;;;;;;;;;;;;;;;1055716;27;3871;-74
2022/03/22 00:16:42;;;;;;;;;;;;;;;;;;1054555;27;2507;-71
2022/03/22 00:17:12;;;;;;;;;;;;;;;;;;1054603;27;3756;-71
2022/03/22 00:17:43;;;;;;;;;;;;;;;;;;1054494;27;2124;-71
2022/03/22 00:18:13;;;;;;;;;;;;;;;;;;1054978;27;4018;-72
2022/03/22 00:18:43;;;;;;;;;;;;;;;;;;1056125;28;1331;-70
2022/03/22 00:19:14;;;;;;;;;;;;;;;;;;1054304;28;4006;-72
2022/03/22 00:19:44;;;;;;;;;;;;;;;;;;1053424;28;2247;-72
2022/03/22 00:20:15;;;;;;;;;;;;;;;;;;1051809;28;3874;-71
2022/03/22 00:20:45;;;;;;;;;;;;;;;;;;1052707;28;2847;-73
2022/03/22 00:21:18;;;;;;;;;;;;;;;;;;1051786;27;3815;-71
2022/03/22 00:21:48;;;;;;;;;;;;;;;;;;1051418;28;2481;-72
2022/03/22 00:22:18;;;;;;;;;;;;;;;;;;1050801;28;3837;-71
2022/03/22 00:22:49;;;;;;;;;;;;;;;;;;1051658;28;2726;-70
2022/03/22 00:23:19;;;;;;;;;;;;;;;;;;1050893;28;3896;-72
2022/03/22 00:23:49;;;;;;;;;;;;;;;;;;1056514;27;3894;-72
2022/03/22 00:24:20;;;;;;;;;;;;;;;;;;1055389;27;2687;-70
2022/03/22 00:24:51;;;;;;;;;;;;;;;;;;1054629;27;4031;-71
2022/03/22 00:25:21;;;;;;;;;;;;;;;;;;1056085;27;2827;-71
2022/03/22 00:25:51;;;;;;;;;;;;;;;;;;1052111;28;4146;-71
2022/03/22 00:26:21;;;;;;;;;;;;;;;;;;1051944;28;2895;-71
2022/03/22 00:26:52;;;;;;;;;;;;;;;;;;1053279;28;4104;-72
2022/03/22 00:27:22;;;;;;;;;;;;;;;;;;1051765;28;2798;-71
2022/03/22 00:27:53;;;;;;;;;;;;;;;;;;1053163;28;4033;-72
2022/03/22 00:28:23;;;;;;;;;;;;;;;;;;1052123;28;4118;-71
2022/03/22 00:28:53;;;;;;;;;;;;;;;;;;1055317;28;3884;-71
2022/03/22 00:29:23;;;;;;;;;;;;;;;;;;1055046;27;2030;-72
2022/03/22 00:29:54;;;;;;;;;;;;;;;;;;1056481;27;4031;-71
2022/03/22 00:30:25;;;;;;;;;;;;;;;;;;1056388;27;2983;-72
2022/03/22 00:30:56;;;;;;;;;;;;;;;;;;1050855;28;4089;-71
2022/03/22 00:31:26;;;;;;;;;;;;;;;;;;1051790;28;2851;-72
2022/03/22 00:31:56;;;;;;;;;;;;;;;;;;1051498;28;3877;-70
2022/03/22 00:32:26;;;;;;;;;;;;;;;;;;1051324;28;2157;-72
2022/03/22 00:32:58;;;;;;;;;;;;;;;;;;1054169;28;4121;-71
2022/03/22 00:33:28;;;;;;;;;;;;;;;;;;1055435;27;2418;-71
2022/03/22 00:33:58;;;;;;;;;;;;;;;;;;1055155;27;4045;-73
2022/03/22 00:34:28;;;;;;;;;;;;;;;;;;1055882;27;2201;-73
2022/03/22 00:34:59;;;;;;;;;;;;;;;;;;1056098;27;3866;-71
2022/03/22 00:35:30;;;;;;;;;;;;;;;;;;1054725;27;2997;-71
2022/03/22 00:36:00;;;;;;;;;;;;;;;;;;1055459;27;4132;-71
2022/03/22 00:36:32;;;;;;;;;;;;;;;;;;1053788;27;2298;-71
2022/03/22 00:37:02;;;;;;;;;;;;;;;;;;1050809;28;3914;-72
2022/03/22 00:37:34;;;;;;;;;;;;;;;;;;1049736;28;3154;-72
2022/03/22 00:38:06;;;;;;;;;;;;;;;;;;1050550;28;3772;-71
2022/03/22 00:38:37;;;;;;;;;;;;;;;;;;1050811;28;1779;-71
2022/03/22 00:39:07;;;;;;;;;;;;;;;;;;1052830;28;3874;-72
2022/03/22 00:39:38;;;;;;;;;;;;;;;;;;1053321;28;2492;-71
2022/03/22 00:40:17;;;;;;;;;;;;;;;;;;1052790;28;3909;-72
2022/03/22 00:40:48;;;;;;;;;;;;;;;;;;1056014;27;2853;-71
2022/03/22 00:41:19;;;;;;;;;;;;;;;;;;1054555;27;3981;-71
2022/03/22 00:41:49;;;;;;;;;;;;;;;;;;1055395;27;4200;-70
2022/03/22 00:42:21;;;;;;;;;;;;;;;;;;1054564;27;2761;-71
2022/03/22 00:42:53;;;;;;;;;;;;;;;;;;1056224;27;3891;-71
2022/03/22 00:43:24;;;;;;;;;;;;;;;;;;1054114;27;2449;-70
2022/03/22 00:43:54;;;;;;;;;;;;;;;;;;1055957;27;3966;-71
2022/03/22 00:44:24;;;;;;;;;;;;;;;;;;1055068;27;2112;-71
2022/03/22 00:44:55;;;;;;;;;;;;;;;;;;1054822;28;3864;-71
2022/03/22 00:45:32;;;;;;;;;;;;;;;;;;1055018;27;2413;-72
2022/03/22 00:46:02;;;;;;;;;;;;;;;;;;1054909;28;3850;-71
2022/03/22 00:46:32;;;;;;;;;;;;;;;;;;1055394;27;2487;-71
2022/03/22 00:47:03;;;;;;;;;;;;;;;;;;1054408;27;4054;-70
2022/03/22 00:47:33;;;;;;;;;;;;;;;;;;1056171;27;2118;-73
2022/03/22 00:48:12;;;;;;;;;;;;;;;;;;1052773;28;4003;-72
2022/03/22 00:48:49;;;;;;;;;;;;;;;;;;1055841;27;2951;-71
2022/03/22 00:49:26;;;;;;;;;;;;;;;;;;1054444;27;3664;-70
2022/03/22 00:49:56;;;;;;;;;;;;;;;;;;1055471;28;4053;-72
2022/03/22 00:50:29;;;;;;;;;;;;;;;;;;1055289;27;2071;-70
2022/03/22 00:50:59;;;;;;;;;;;;;;;;;;1056034;27;4038;-71
2022/03/22 00:51:30;;;;;;;;;;;;;;;;;;1054826;27;3314;-71
2022/03/22 00:52:01;;;;;;;;;;;;;;;;;;1055432;28;4873;-71
2022/03/22 00:52:32;;;;;;;;;;;;;;;;;;1055330;27;3127;-72
2022/03/22 00:53:04;;;;;;;;;;;;;;;;;;1056989;27;4062;-71
2022/03/22 00:53:34;;;;;;;;;;;;;;;;;;1055562;27;2485;-72
2022/03/22 00:54:04;;;;;;;;;;;;;;;;;;1056734;27;4145;-71
2022/03/22 00:54:35;;;;;;;;;;;;;;;;;;1055215;27;2394;-72
2022/03/22 00:55:13;;;;;;;;;;;;;;;;;;1054421;28;3821;-72
2022/03/22 00:55:43;;;;;;;;;;;;;;;;;;1056979;27;2204;-73
2022/03/22 00:56:13;;;;;;;;;;;;;;;;;;1054472;27;3954;-72
2022/03/22 00:56:44;;;;;;;;;;;;;;;;;;1056410;27;2373;-72
2022/03/22 00:57:14;;;;;;;;;;;;;;;;;;1053303;27;3865;-72
2022/03/22 00:57:44;;;;;;;;;;;;;;;;;;1055508;27;2529;-72
2022/03/22 00:58:15;;;;;;;;;;;;;;;;;;1054159;27;4017;-71
2022/03/22 00:58:45;;;;;;;;;;;;;;;;;;1055974;27;2140;-72
2022/03/22 01:00:05;;;;;;;;;;;;;;;;;;1054648;28;3881;-71
2022/03/22 01:00:36;;;;;;;;;;;;;;;;;;1053973;28;2829;-70
2022/03/22 01:01:06;;;;;;;;;;;;;;;;;;1055647;27;4079;-72
2022/03/22 01:01:37;;;;;;;;;;;;;;;;;;1056639;27;2592;-70
2022/03/22 01:02:08;;;;;;;;;;;;;;;;;;1055395;27;3766;-71
2022/03/22 01:02:39;;;;;;;;;;;;;;;;;;1053295;28;2404;-72
2022/03/22 01:03:10;;;;;;;;;;;;;;;;;;1051271;28;3809;-71
2022/03/22 01:03:40;;;;;;;;;;;;;;;;;;1049139;28;2482;-71
2022/03/22 01:04:10;;;;;;;;;;;;;;;;;;1048343;28;4026;-70
2022/03/22 01:04:40;;;;;;;;;;;;;;;;;;1044256;28;2766;-70
2022/03/22 01:05:13;;;;;;;;;;;;;;;;;;1043743;28;4249;-71
2022/03/22 01:05:43;;;;;;;;;;;;;;;;;;1048418;28;2691;-72
2022/03/22 01:06:13;;;;;;;;;;;;;;;;;;1049249;27;4002;-72
2022/03/22 01:06:44;;;;;;;;;;;;;;;;;;1054310;28;2603;-71
2022/03/22 01:07:14;;;;;;;;;;;;;;;;;;1055862;27;3921;-72
2022/03/22 01:07:50;;;;;;;;;;;;;;;;;;1055019;27;2358;-71
2022/03/22 01:08:23;;;;;;;;;;;;;;;;;;1055282;27;3866;-72
2022/03/22 01:08:53;;;;;;;;;;;;;;;;;;1055814;27;4029;-71
2022/03/22 01:09:23;;;;;;;;;;;;;;;;;;1054694;27;3555;-72
2022/03/22 01:09:53;;;;;;;;;;;;;;;;;;1055051;27;3906;-71
2022/03/22 01:10:25;;;;;;;;;;;;;;;;;;1055779;27;1838;-71
2022/03/22 01:10:55;;;;;;;;;;;;;;;;;;1056449;27;3958;-72
2022/03/22 01:11:25;;;;;;;;;;;;;;;;;;1055018;27;2414;-71
2022/03/22 01:11:57;;;;;;;;;;;;;;;;;;1056542;27;3995;-73
2022/03/22 01:12:27;;;;;;;;;;;;;;;;;;1055303;27;2674;-70
2022/03/22 01:12:58;;;;;;;;;;;;;;;;;;1055511;27;4235;-72
2022/03/22 01:13:28;;;;;;;;;;;;;;;;;;1055285;27;2229;-71
2022/03/22 01:13:59;;;;;;;;;;;;;;;;;;1054525;28;4045;-72
2022/03/22 01:14:29;;;;;;;;;;;;;;;;;;1052320;28;2793;-72
2022/03/22 01:14:59;;;;;;;;;;;;;;;;;;1053071;28;3868;-73
2022/03/22 01:15:33;;;;;;;;;;;;;;;;;;1052945;28;1824;-72
2022/03/22 01:16:03;;;;;;;;;;;;;;;;;;1054192;28;4183;-70
2022/03/22 01:16:34;;;;;;;;;;;;;;;;;;1056122;27;2287;-72
2022/03/22 01:17:06;;;;;;;;;;;;;;;;;;1054962;27;3973;-71
2022/03/22 01:17:37;;;;;;;;;;;;;;;;;;1056004;27;2775;-71
2022/03/22 01:18:08;;;;;;;;;;;;;;;;;;1054807;27;3943;-71
2022/03/22 01:18:39;;;;;;;;;;;;;;;;;;1049200;28;2573;-72
2022/03/22 01:19:09;;;;;;;;;;;;;;;;;;1047717;28;4026;-72
2022/03/22 01:19:39;;;;;;;;;;;;;;;;;;1049378;28;2600;-72
2022/03/22 01:20:10;;;;;;;;;;;;;;;;;;1049247;28;4037;-71
2022/03/22 01:20:42;;;;;;;;;;;;;;;;;;1054745;28;2384;-72
2022/03/22 01:21:12;;;;;;;;;;;;;;;;;;1054828;28;3809;-72
2022/03/22 01:21:43;;;;;;;;;;;;;;;;;;1054472;27;2722;-71
2022/03/22 01:22:14;;;;;;;;;;;;;;;;;;1055250;28;3898;-71
2022/03/22 01:22:45;;;;;;;;;;;;;;;;;;1056604;27;2342;-72
2022/03/22 01:23:16;;;;;;;;;;;;;;;;;;1055121;27;3833;-71
2022/03/22 01:23:46;;;;;;;;;;;;;;;;;;1055290;27;2352;-71
2022/03/22 01:24:16;;;;;;;;;;;;;;;;;;1054365;28;4036;-72
2022/03/22 01:24:48;;;;;;;;;;;;;;;;;;1057002;28;2227;-72
2022/03/22 01:25:19;;;;;;;;;;;;;;;;;;1054254;27;3951;-70
2022/03/22 01:25:50;;;;;;;;;;;;;;;;;;1055778;27;4043;-72
2022/03/22 01:26:20;;;;;;;;;;;;;;;;;;1055782;28;2375;-73
2022/03/22 01:26:51;;;;;;;;;;;;;;;;;;1054917;27;4016;-71
2022/03/22 01:27:22;;;;;;;;;;;;;;;;;;1054811;27;2911;-72
2022/03/22 01:27:52;;;;;;;;;;;;;;;;;;1055263;28;3990;-72
2022/03/22 01:28:23;;;;;;;;;;;;;;;;;;1055020;28;1815;-71
2022/03/22 01:28:53;;;;;;;;;;;;;;;;;;1055179;27;3807;-70
2022/03/22 01:29:23;;;;;;;;;;;;;;;;;;1048413;28;2493;-71
2022/03/22 01:29:53;;;;;;;;;;;;;;;;;;1047827;28;3936;-70
2022/03/22 01:30:24;;;;;;;;;;;;;;;;;;1048722;28;2104;-72
2022/03/22 01:30:55;;;;;;;;;;;;;;;;;;1047464;28;3801;-72
2022/03/22 01:31:25;;;;;;;;;;;;;;;;;;1056158;27;2511;-70
2022/03/22 01:31:56;;;;;;;;;;;;;;;;;;1056786;28;3940;-71
2022/03/22 01:32:26;;;;;;;;;;;;;;;;;;1056025;28;2437;-71
2022/03/22 01:32:56;;;;;;;;;;;;;;;;;;1055255;28;4015;-72
2022/03/22 01:33:27;;;;;;;;;;;;;;;;;;1054352;27;2499;-71
2022/03/22 01:33:57;;;;;;;;;;;;;;;;;;1056042;28;4121;-72
2022/03/22 01:34:27;;;;;;;;;;;;;;;;;;1054804;28;2879;-71
2022/03/22 01:34:57;;;;;;;;;;;;;;;;;;1055589;28;3869;-72
2022/03/22 01:35:28;;;;;;;;;;;;;;;;;;1056239;28;2859;-71
2022/03/22 01:35:58;;;;;;;;;;;;;;;;;;1055328;28;3877;-71
2022/03/22 01:36:30;;;;;;;;;;;;;;;;;;1055139;28;2773;-73
2022/03/22 01:37:00;;;;;;;;;;;;;;;;;;1055203;28;4021;-71
2022/03/22 01:37:30;;;;;;;;;;;;;;;;;;1056746;27;2669;-71
2022/03/22 01:38:01;;;;;;;;;;;;;;;;;;1055259;27;4083;-71
2022/03/22 01:38:31;;;;;;;;;;;;;;;;;;1055528;28;1102;-72
2022/03/22 01:39:02;;;;;;;;;;;;;;;;;;1056122;27;4149;-72
2022/03/22 01:39:32;;;;;;;;;;;;;;;;;;1055310;28;1945;-71
2022/03/22 01:40:03;;;;;;;;;;;;;;;;;;1055050;28;4060;-71
2022/03/22 01:40:34;;;;;;;;;;;;;;;;;;1054816;28;3441;-71
2022/03/22 01:41:04;;;;;;;;;;;;;;;;;;1055117;28;4023;-71
2022/03/22 01:41:35;;;;;;;;;;;;;;;;;;1055287;28;2324;-71
2022/03/22 01:42:05;;;;;;;;;;;;;;;;;;1056151;28;4022;-71
2022/03/22 01:42:35;;;;;;;;;;;;;;;;;;1054964;28;2476;-71
2022/03/22 01:43:06;;;;;;;;;;;;;;;;;;1056112;28;4049;-71
2022/03/22 01:43:36;;;;;;;;;;;;;;;;;;1057037;28;2358;-72
2022/03/22 01:44:06;;;;;;;;;;;;;;;;;;1054402;28;3869;-72
2022/03/22 01:44:36;;;;;;;;;;;;;;;;;;1055511;28;1974;-72
2022/03/22 01:45:09;;;;;;;;;;;;;;;;;;1049914;28;4197;-69
2022/03/22 01:45:40;;;;;;;;;;;;;;;;;;1052650;28;2555;-72
2022/03/22 01:46:11;;;;;;;;;;;;;;;;;;1052211;28;3847;-73
2022/03/22 01:46:42;;;;;;;;;;;;;;;;;;1053450;28;2466;-71
2022/03/22 01:47:14;;;;;;;;;;;;;;;;;;1055708;28;3772;-72
2022/03/22 01:47:45;;;;;;;;;;;;;;;;;;1056378;28;1673;-72
2022/03/22 01:48:22;;;;;;;;;;;;;;;;;;1053511;28;4178;-71
2022/03/22 01:48:59;;;;;;;;;;;;;;;;;;1056403;28;4188;-72
2022/03/22 01:49:30;;;;;;;;;;;;;;;;;;1056734;28;2740;-71
2022/03/22 01:50:00;;;;;;;;;;;;;;;;;;1055986;28;3900;-71
2022/03/22 01:50:30;;;;;;;;;;;;;;;;;;1056374;28;2741;-72
2022/03/22 01:51:01;;;;;;;;;;;;;;;;;;1054947;28;3874;-70
2022/03/22 01:51:32;;;;;;;;;;;;;;;;;;1055673;28;2087;-70
2022/03/22 01:52:04;;;;;;;;;;;;;;;;;;1050799;28;4101;-70
2022/03/22 01:52:36;;;;;;;;;;;;;;;;;;1052648;28;2788;-71
2022/03/22 01:53:07;;;;;;;;;;;;;;;;;;1049527;28;3843;-71
2022/03/22 01:53:40;;;;;;;;;;;;;;;;;;1049779;28;2167;-74
2022/03/22 01:54:17;;;;;;;;;;;;;;;;;;1051692;28;4003;-70
2022/03/22 01:54:52;;;;;;;;;;;;;;;;;;1052805;28;2730;-71
2022/03/22 01:55:23;;;;;;;;;;;;;;;;;;1053108;28;3831;-70
2022/03/22 01:55:54;;;;;;;;;;;;;;;;;;1056284;28;4044;-72
2022/03/22 01:56:24;;;;;;;;;;;;;;;;;;1055331;28;2383;-71
2022/03/22 01:56:55;;;;;;;;;;;;;;;;;;1054264;28;4145;-71
2022/03/22 01:57:25;;;;;;;;;;;;;;;;;;1055905;28;2749;-71
2022/03/22 01:57:56;;;;;;;;;;;;;;;;;;1055242;28;4991;-71
2022/03/22 01:58:26;;;;;;;;;;;;;;;;;;1055930;28;2932;-71
2022/03/22 01:58:56;;;;;;;;;;;;;;;;;;1054318;28;4040;-72
2022/03/22 01:59:26;;;;;;;;;;;;;;;;;;1056110;28;2792;-71
2022/03/22 01:59:57;;;;;;;;;;;;;;;;;;1057018;28;4059;-71
2022/03/22 02:00:27;;;;;;;;;;;;;;;;;;1054688;28;2667;-71
2022/03/22 02:05:51;;;;;;;;;;;;;;;;;;1054812;28;5000;-72
2022/03/22 02:05:55;;;;;;;;;;;;;;;;;;1055008;28;4118;-70
2022/03/22 02:06:26;;;;;;;;;;;;;;;;;;1055804;28;1473;-72
2022/03/22 02:06:57;;;;;;;;;;;;;;;;;;1054342;28;3973;-72
2022/03/22 02:07:31;;;;;;;;;;;;;;;;;;1055153;28;2886;-71
2022/03/22 02:08:01;;;;;;;;;;;;;;;;;;1054282;28;4108;-71
2022/03/22 02:08:34;;;;;;;;;;;;;;;;;;1056636;28;2590;-72
2022/03/22 02:09:05;;;;;;;;;;;;;;;;;;1050165;28;3896;-71
2022/03/22 02:09:35;;;;;;;;;;;;;;;;;;1050836;28;2518;-73
2022/03/22 02:10:06;;;;;;;;;;;;;;;;;;1051216;28;3846;-73
2022/03/22 02:10:37;;;;;;;;;;;;;;;;;;1051022;28;2330;-73
2022/03/22 02:11:07;;;;;;;;;;;;;;;;;;1055239;28;4020;-72
2022/03/22 02:11:38;;;;;;;;;;;;;;;;;;1055389;27;2520;-71
2022/03/22 02:12:09;;;;;;;;;;;;;;;;;;1044440;28;4106;-71
2022/03/22 02:12:41;;;;;;;;;;;;;;;;;;1046472;28;2589;-71
2022/03/22 02:13:12;;;;;;;;;;;;;;;;;;1046621;28;3989;-72
2022/03/22 02:13:42;;;;;;;;;;;;;;;;;;1050090;27;2267;-72
2022/03/22 02:14:12;;;;;;;;;;;;;;;;;;1056316;27;4071;-71
2022/03/22 02:14:43;;;;;;;;;;;;;;;;;;1052645;28;1717;-71
2022/03/22 02:15:13;;;;;;;;;;;;;;;;;;1050575;28;3749;-72
2022/03/22 02:15:46;;;;;;;;;;;;;;;;;;1051927;28;2582;-71
2022/03/22 02:16:16;;;;;;;;;;;;;;;;;;1052371;28;4045;-72
2022/03/22 02:16:46;;;;;;;;;;;;;;;;;;1056922;27;1530;-72
2022/03/22 02:17:16;;;;;;;;;;;;;;;;;;1055387;27;4009;-71
2022/03/22 02:17:47;;;;;;;;;;;;;;;;;;1057134;27;2388;-71
2022/03/22 02:18:17;;;;;;;;;;;;;;;;;;1056929;27;3860;-71
2022/03/22 02:18:50;;;;;;;;;;;;;;;;;;1055154;27;2279;-71
2022/03/22 02:19:21;;;;;;;;;;;;;;;;;;1055656;27;3809;-70
2022/03/22 02:19:51;;;;;;;;;;;;;;;;;;1056186;27;3867;-71
2022/03/22 02:20:22;;;;;;;;;;;;;;;;;;1055548;27;2870;-73
2022/03/22 02:20:52;;;;;;;;;;;;;;;;;;1057102;27;3803;-71
2022/03/22 02:21:24;;;;;;;;;;;;;;;;;;1055306;27;3692;-70
2022/03/22 02:22:00;;;;;;;;;;;;;;;;;;1052969;27;3896;-71
2022/03/22 02:22:36;;;;;;;;;;;;;;;;;;1053982;28;2667;-70
2022/03/22 02:23:13;;;;;;;;;;;;;;;;;;1054093;27;3852;-73
2022/03/22 02:23:47;;;;;;;;;;;;;;;;;;1056011;27;1765;-72
2022/03/22 02:24:17;;;;;;;;;;;;;;;;;;1054824;28;4031;-70
2022/03/22 02:24:47;;;;;;;;;;;;;;;;;;1056359;27;2261;-72
2022/03/22 02:25:18;;;;;;;;;;;;;;;;;;1056552;27;3793;-72
2022/03/22 02:25:55;;;;;;;;;;;;;;;;;;1056670;27;4141;-70
2022/03/22 02:26:26;;;;;;;;;;;;;;;;;;1056620;27;2290;-72
2022/03/22 02:26:56;;;;;;;;;;;;;;;;;;1055507;27;4042;-71
2022/03/22 02:27:29;;;;;;;;;;;;;;;;;;1056813;27;2266;-71
2022/03/22 02:27:59;;;;;;;;;;;;;;;;;;1054633;27;4073;-71
2022/03/22 02:28:30;;;;;;;;;;;;;;;;;;1056164;27;2383;-71
2022/03/22 02:29:00;;;;;;;;;;;;;;;;;;1055195;27;4057;-71
2022/03/22 02:29:30;;;;;;;;;;;;;;;;;;1056781;27;2158;-71
2022/03/22 02:30:00;;;;;;;;;;;;;;;;;;1056414;27;3896;-71
2022/03/22 02:30:31;;;;;;;;;;;;;;;;;;1056251;27;2185;-69
2022/03/22 02:31:02;;;;;;;;;;;;;;;;;;1055457;27;3881;-69
2022/03/22 02:31:33;;;;;;;;;;;;;;;;;;1054338;27;2886;-71
2022/03/22 02:32:04;;;;;;;;;;;;;;;;;;1056728;27;4051;-69
2022/03/22 02:32:34;;;;;;;;;;;;;;;;;;1055787;27;1707;-70
2022/03/22 02:33:04;;;;;;;;;;;;;;;;;;1052608;28;4113;-70
2022/03/22 02:33:34;;;;;;;;;;;;;;;;;;1051364;28;2622;-70
2022/03/22 02:34:05;;;;;;;;;;;;;;;;;;1050841;28;4020;-71
2022/03/22 02:34:36;;;;;;;;;;;;;;;;;;1048615;28;2206;-70
2022/03/22 02:35:07;;;;;;;;;;;;;;;;;;1053492;28;3868;-72
2022/03/22 02:35:37;;;;;;;;;;;;;;;;;;1054022;28;2590;-71
2022/03/22 02:36:08;;;;;;;;;;;;;;;;;;1053440;28;3788;-72
2022/03/22 02:36:38;;;;;;;;;;;;;;;;;;1049796;28;2848;-70
2022/03/22 02:37:08;;;;;;;;;;;;;;;;;;1048013;28;4282;-70
2022/03/22 02:37:39;;;;;;;;;;;;;;;;;;1051216;28;2749;-71
2022/03/22 02:38:09;;;;;;;;;;;;;;;;;;1049262;28;3939;-70
2022/03/22 02:38:39;;;;;;;;;;;;;;;;;;1056039;27;2652;-71
2022/03/22 02:39:10;;;;;;;;;;;;;;;;;;1055718;27;4031;-69
2022/03/22 02:39:40;;;;;;;;;;;;;;;;;;1056783;27;2601;-72
2022/03/22 02:40:12;;;;;;;;;;;;;;;;;;1055794;27;3858;-70
2022/03/22 02:40:44;;;;;;;;;;;;;;;;;;1056675;27;2349;-69
2022/03/22 02:41:19;;;;;;;;;;;;;;;;;;1050483;28;4153;-70
2022/03/22 02:41:51;;;;;;;;;;;;;;;;;;1050514;28;3925;-71
2022/03/22 02:42:21;;;;;;;;;;;;;;;;;;1051856;28;2076;-70
2022/03/22 02:42:54;;;;;;;;;;;;;;;;;;1052665;28;3910;-71
2022/03/22 02:43:24;;;;;;;;;;;;;;;;;;1049420;28;1570;-73
2022/03/22 02:43:54;;;;;;;;;;;;;;;;;;1043948;28;4088;-72
2022/03/22 02:44:24;;;;;;;;;;;;;;;;;;1045815;28;2971;-71
2022/03/22 02:44:55;;;;;;;;;;;;;;;;;;1045642;28;3900;-71
2022/03/22 02:45:26;;;;;;;;;;;;;;;;;;1049806;28;2536;-70
2022/03/22 02:45:56;;;;;;;;;;;;;;;;;;1052329;28;3983;-70
2022/03/22 02:46:26;;;;;;;;;;;;;;;;;;1051080;28;3122;-72
2022/03/22 02:46:56;;;;;;;;;;;;;;;;;;1051484;28;3880;-71
2022/03/22 02:47:27;;;;;;;;;;;;;;;;;;1055873;27;2489;-71
2022/03/22 02:47:58;;;;;;;;;;;;;;;;;;1057283;27;4241;-70
2022/03/22 02:48:37;;;;;;;;;;;;;;;;;;1054359;27;2333;-71
2022/03/22 02:49:14;;;;;;;;;;;;;;;;;;1055212;28;3924;-72
2022/03/22 02:49:51;;;;;;;;;;;;;;;;;;1055408;27;3788;-71
2022/03/22 02:50:21;;;;;;;;;;;;;;;;;;1055915;27;2807;-71
2022/03/22 02:50:52;;;;;;;;;;;;;;;;;;1055820;27;4053;-70
2022/03/22 02:51:22;;;;;;;;;;;;;;;;;;1055121;27;2788;-71
2022/03/22 02:51:52;;;;;;;;;;;;;;;;;;1055694;27;4013;-71
2022/03/22 02:52:22;;;;;;;;;;;;;;;;;;1055509;27;2801;-70
2022/03/22 02:52:53;;;;;;;;;;;;;;;;;;1055701;27;4158;-70
2022/03/22 02:53:23;;;;;;;;;;;;;;;;;;1054935;27;2325;-71
2022/03/22 02:53:53;;;;;;;;;;;;;;;;;;1051701;28;4404;-71
2022/03/22 02:54:24;;;;;;;;;;;;;;;;;;1050706;28;2857;-70
2022/03/22 02:54:54;;;;;;;;;;;;;;;;;;1052329;28;4074;-71
2022/03/22 02:55:24;;;;;;;;;;;;;;;;;;1052219;28;2485;-70
2022/03/22 02:55:54;;;;;;;;;;;;;;;;;;1055977;27;3883;-70
2022/03/22 02:56:24;;;;;;;;;;;;;;;;;;1054929;27;2344;-70
2022/03/22 02:56:55;;;;;;;;;;;;;;;;;;1055052;27;4039;-71
2022/03/22 02:57:25;;;;;;;;;;;;;;;;;;1055913;27;2646;-71
2022/03/22 02:57:55;;;;;;;;;;;;;;;;;;1055594;27;3909;-70
2022/03/22 02:58:26;;;;;;;;;;;;;;;;;;1055700;27;2800;-69
2022/03/22 02:58:56;;;;;;;;;;;;;;;;;;1050610;28;4048;-71
2022/03/22 02:59:26;;;;;;;;;;;;;;;;;;1053122;28;2750;-69
2022/03/22 02:59:57;;;;;;;;;;;;;;;;;;1053505;28;3976;-70
2022/03/22 03:00:27;;;;;;;;;;;;;;;;;;1052983;28;2409;-71
2022/03/22 03:00:57;;;;;;;;;;;;;;;;;;1056838;27;4108;-71
2022/03/22 03:01:27;;;;;;;;;;;;;;;;;;1055243;27;2667;-71
2022/03/22 03:01:58;;;;;;;;;;;;;;;;;;1055932;27;3874;-71
2022/03/22 03:02:29;;;;;;;;;;;;;;;;;;1055339;27;2775;-70
2022/03/22 03:02:59;;;;;;;;;;;;;;;;;;1054289;28;4084;-71
2022/03/22 03:03:29;;;;;;;;;;;;;;;;;;1054238;28;2498;-70
2022/03/22 03:04:00;;;;;;;;;;;;;;;;;;1052388;28;4126;-71
2022/03/22 03:04:31;;;;;;;;;;;;;;;;;;1053989;28;2305;-71
2022/03/22 03:05:01;;;;;;;;;;;;;;;;;;1053268;28;3903;-71
2022/03/22 03:05:32;;;;;;;;;;;;;;;;;;1053168;28;2718;-70
2022/03/22 03:06:03;;;;;;;;;;;;;;;;;;1053210;28;3789;-70
2022/03/22 03:06:35;;;;;;;;;;;;;;;;;;1053181;28;2443;-71
2022/03/22 03:07:05;;;;;;;;;;;;;;;;;;1054957;27;3926;-70
2022/03/22 03:07:36;;;;;;;;;;;;;;;;;;1056547;27;2726;-72
2022/03/22 03:08:06;;;;;;;;;;;;;;;;;;1056865;27;3996;-71
2022/03/22 03:08:37;;;;;;;;;;;;;;;;;;1056597;27;2630;-71
2022/03/22 03:09:07;;;;;;;;;;;;;;;;;;1057467;27;4023;-70
2022/03/22 03:09:37;;;;;;;;;;;;;;;;;;1055941;27;2646;-70
2022/03/22 03:10:08;;;;;;;;;;;;;;;;;;1056062;27;3881;-71
2022/03/22 03:10:38;;;;;;;;;;;;;;;;;;1055536;27;2488;-71
2022/03/22 03:11:09;;;;;;;;;;;;;;;;;;1055887;27;3861;-70
2022/03/22 03:11:39;;;;;;;;;;;;;;;;;;1056968;27;2725;-71
2022/03/22 03:12:09;;;;;;;;;;;;;;;;;;1055403;27;4058;-70
2022/03/22 03:12:40;;;;;;;;;;;;;;;;;;1052550;28;2562;-71
2022/03/22 03:13:10;;;;;;;;;;;;;;;;;;1050664;28;3929;-70
2022/03/22 03:14:38;;;;;;;;;;;;;;;;;;1053224;27;3820;-70
2022/03/22 03:15:10;;;;;;;;;;;;;;;;;;1054486;27;3832;-70
2022/03/22 03:15:40;;;;;;;;;;;;;;;;;;1056227;27;2874;-72
2022/03/22 03:16:11;;;;;;;;;;;;;;;;;;1055455;27;4075;-69
2022/03/22 03:16:41;;;;;;;;;;;;;;;;;;1056880;27;2708;-69
2022/03/22 03:17:13;;;;;;;;;;;;;;;;;;1055050;27;4060;-71
2022/03/22 03:17:43;;;;;;;;;;;;;;;;;;1056404;27;2278;-71
2022/03/22 03:18:13;;;;;;;;;;;;;;;;;;1055098;27;4031;-71
2022/03/22 03:18:44;;;;;;;;;;;;;;;;;;1056704;27;2198;-70
2022/03/22 03:19:14;;;;;;;;;;;;;;;;;;1055324;27;4061;-71
2022/03/22 03:19:44;;;;;;;;;;;;;;;;;;1051764;28;2408;-72
2022/03/22 03:20:15;;;;;;;;;;;;;;;;;;1050139;28;3978;-71
2022/03/22 03:20:52;;;;;;;;;;;;;;;;;;1047389;28;3852;-70
2022/03/22 03:21:22;;;;;;;;;;;;;;;;;;1047540;28;2282;-71
2022/03/22 03:21:52;;;;;;;;;;;;;;;;;;1051140;28;3861;-69
2022/03/22 03:22:23;;;;;;;;;;;;;;;;;;1051815;28;2269;-69
2022/03/22 03:22:53;;;;;;;;;;;;;;;;;;1053286;28;3884;-71
2022/03/22 03:23:23;;;;;;;;;;;;;;;;;;1052982;28;2450;-71
2022/03/22 03:23:53;;;;;;;;;;;;;;;;;;1054548;28;4040;-69
2022/03/22 03:24:23;;;;;;;;;;;;;;;;;;1053642;28;2412;-70
2022/03/22 03:24:54;;;;;;;;;;;;;;;;;;1055018;27;3801;-70
2022/03/22 03:25:25;;;;;;;;;;;;;;;;;;1056566;27;3076;-72
2022/03/22 03:25:55;;;;;;;;;;;;;;;;;;1056468;27;4111;-71
2022/03/22 03:26:25;;;;;;;;;;;;;;;;;;1056064;27;1728;-71
2022/03/22 03:26:56;;;;;;;;;;;;;;;;;;1051785;27;3870;-70
2022/03/22 03:27:26;;;;;;;;;;;;;;;;;;1053975;28;2681;-71
2022/03/22 03:27:56;;;;;;;;;;;;;;;;;;1053560;28;3856;-71
2022/03/22 03:28:27;;;;;;;;;;;;;;;;;;1052396;28;2096;-71
2022/03/22 03:28:57;;;;;;;;;;;;;;;;;;1056011;27;3945;-70
2022/03/22 03:29:28;;;;;;;;;;;;;;;;;;1055877;27;2302;-72
2022/03/22 03:29:58;;;;;;;;;;;;;;;;;;1055922;27;3882;-71
2022/03/22 03:30:29;;;;;;;;;;;;;;;;;;1055729;27;2790;-70
2022/03/22 03:31:00;;;;;;;;;;;;;;;;;;1054757;27;3941;-70
2022/03/22 03:31:30;;;;;;;;;;;;;;;;;;1055973;27;2834;-72
2022/03/22 03:32:00;;;;;;;;;;;;;;;;;;1055966;28;4091;-70
2022/03/22 03:32:31;;;;;;;;;;;;;;;;;;1056233;27;2492;-71
2022/03/22 03:33:03;;;;;;;;;;;;;;;;;;1054763;28;4041;-70
2022/03/22 03:33:33;;;;;;;;;;;;;;;;;;1056358;27;2356;-72
2022/03/22 03:34:04;;;;;;;;;;;;;;;;;;1054912;27;3824;-70
2022/03/22 03:34:34;;;;;;;;;;;;;;;;;;1056555;27;2366;-70
2022/03/22 03:35:05;;;;;;;;;;;;;;;;;;1055581;27;3858;-70
2022/03/22 03:35:35;;;;;;;;;;;;;;;;;;1056392;27;2823;-71
2022/03/22 03:36:05;;;;;;;;;;;;;;;;;;1056320;27;3885;-71
2022/03/22 03:36:36;;;;;;;;;;;;;;;;;;1056005;27;2489;-73
2022/03/22 03:37:06;;;;;;;;;;;;;;;;;;1055294;27;4044;-71
2022/03/22 03:37:37;;;;;;;;;;;;;;;;;;1054932;27;2826;-72
2022/03/22 03:38:08;;;;;;;;;;;;;;;;;;1056458;27;3796;-71
2022/03/22 03:38:41;;;;;;;;;;;;;;;;;;1056904;27;2222;-71
2022/03/22 03:39:12;;;;;;;;;;;;;;;;;;1049574;28;4123;-70
2022/03/22 03:39:43;;;;;;;;;;;;;;;;;;1051291;28;2486;-71
2022/03/22 03:40:13;;;;;;;;;;;;;;;;;;1051102;28;4044;-71
2022/03/22 03:42:21;;;;;;;;;;;;;;;;;;1053645;27;3991;-71
2022/03/22 03:42:51;;;;;;;;;;;;;;;;;;1055587;27;3889;-71
2022/03/22 03:43:21;;;;;;;;;;;;;;;;;;1056283;27;2815;-70